Commit Graph

194 Commits

Author SHA1 Message Date
Rico van Zelst 2b8e6d9327 feat: skin list 2023-11-09 12:20:46 +01:00
Rico van Zelst 70306245e6 fix: add footer to all pages 2023-11-09 11:16:17 +01:00
Rico van Zelst 3e2d8ad6fe feat: add footer 2023-11-09 11:15:18 +01:00
Rico van Zelst 225cab967d fix: vert scroll bug 2023-11-09 09:08:00 +01:00
Rico van Zelst 850564c096 style: move script to vite manifest 2023-11-09 08:54:32 +01:00
Rico van Zelst 00018878e0 feat: position filter 2023-11-08 21:40:51 +01:00
Rico van Zelst c7eae5d41a fix: skin duplicate bug 2023-11-08 18:47:26 +01:00
Rico van Zelst a61b4f8085 feat: sideways scroll improvement 2023-11-08 15:05:16 +01:00
Rico van Zelst 003c58544f feat: skin list on champion details 2023-11-08 15:01:20 +01:00
Rico van Zelst 68231197d0 fix: skin foreign key 2023-11-08 15:01:20 +01:00
Rico van Zelst 149174ebc3 feat: champ information, style improvement 2023-11-08 14:12:51 +01:00
Rico van Zelst 38247c71d9 feat: champ info start 2023-11-08 10:39:52 +01:00
Rico van Zelst cabb5414ae axe: accessibility text size 2023-11-07 22:24:02 +01:00
Rico van Zelst 1b58cbc388 seo: description meta 2023-11-07 22:15:58 +01:00
Rico van Zelst d17d19bac6 fix: query optimization
 166 Queries -> 2 Queries (cached)
2023-11-07 22:04:00 +01:00
Rico van Zelst 04602efece fix: detail icon 2023-11-07 21:36:27 +01:00
Rico van Zelst 942123947b feat: new iconsets
more lightweight
2023-11-07 21:28:21 +01:00
Rico van Zelst 1e974ee614 upd: gitignore 2023-11-07 20:30:35 +01:00
Rico van Zelst 8751c6dd1a fix: image loading & syze 2023-11-07 19:52:45 +01:00
Rico van Zelst a4bdbe880c feat: add redirect to navbar and feature 2023-11-07 19:39:40 +01:00
Rico van Zelst 790b8d280f feat: image load animation 2023-11-07 19:38:34 +01:00
Rico van Zelst b5342fcc9d style: remove unused code 2023-11-07 19:15:09 +01:00
Rico van Zelst bceead273d fix: move scripts to vite 2023-11-07 18:27:46 +01:00
Rico van Zelst 158b5c2df2 change: self host scripts 2023-11-07 18:23:01 +01:00
Rico van Zelst e2c63a7a0a fix: accessibility changes 2023-11-07 18:11:44 +01:00
Rico van Zelst a282f3a768 fix: use fa script instead of style 2023-11-07 18:02:47 +01:00
Rico van Zelst b4f5954558 fix: don't lazy load atf images 2023-11-07 17:46:14 +01:00
Rico van Zelst 167be2fd82 opt: use image cdn for splashes 2023-11-07 17:41:03 +01:00
Rico van Zelst 4445bc1478 feat: champion list 2023-11-07 17:28:37 +01:00
Rico van Zelst 42955bea4f fix: make metadata work on twitter 2023-11-07 14:14:44 +01:00
Rico van Zelst 17dbc897b1 feat: og meta image 2023-11-07 14:06:35 +01:00
Rico van Zelst af1b031240 feat: home seo text 2023-11-07 13:44:00 +01:00
Rico van Zelst ab15e38ac0 feat: skinline tags 2023-11-07 13:16:46 +01:00
Rico van Zelst 67df40dce6 fix: optimize queries 2023-11-07 08:38:17 +01:00
Rico van Zelst 90e36c74ec feat: caching 2023-11-06 21:47:51 +01:00
Rico van Zelst 3d6c00dd0d feat: upcoming skins & feat: return types 2023-11-06 20:56:21 +01:00
Rico van Zelst ae1c9f0843 style: use import 2023-11-06 17:28:35 +01:00
Rico van Zelst 41ccc95c03 feat: auto-complete in view 2023-11-06 10:07:08 +01:00
Rico van Zelst 0fb5f76ad2 feat: add recent skins to home 2023-11-06 00:56:11 +01:00
Rico van Zelst 3ee7112641 #️⃣ Change temp URLs 2023-10-27 01:17:23 +02:00
Rico van Zelst 55447937a6 ⚙️ Feature Cards + Navbar changes 2023-10-26 19:12:46 +02:00
Rico van Zelst c1194738c5 🖼️ Navbar + Icon + Font 2023-10-26 16:57:28 +02:00
Rico van Zelst 23c31f88c5 Tailwind + Logo 2023-10-25 22:40:15 +02:00
Rico van Zelst 6aa1f21eb1 🏗️ Laravel Installation 2023-10-14 17:00:26 +02:00